sensor_id;sensor_type;location;lat;lon;timestamp;temperature;humidity
6114;DHT22;3087;48.392;10.836;2023-11-19T00:00:09;6.60;99.90
6114;DHT22;3087;48.392;10.836;2023-11-19T00:02:38;6.60;99.90
6114;DHT22;3087;48.392;10.836;2023-11-19T00:05:05;6.70;99.90
6114;DHT22;3087;48.392;10.836;2023-11-19T00:07:37;6.70;99.90
6114;DHT22;3087;48.392;10.836;2023-11-19T00:10:10;6.70;99.90
6114;DHT22;3087;48.392;10.836;2023-11-19T00:12:38;6.70;99.90
6114;DHT22;3087;48.392;10.836;2023-11-19T00:15:05;6.80;99.90
6114;DHT22;3087;48.392;10.836;2023-11-19T00:17:32;6.90;99.90
6114;DHT22;3087;48.392;10.836;2023-11-19T00:19:57;6.90;99.90
6114;DHT22;3087;48.392;10.836;2023-11-19T00:22:23;6.80;99.90
6114;DHT22;3087;48.392;10.836;2023-11-19T00:24:48;6.90;99.90
6114;DHT22;3087;48.392;10.836;2023-11-19T00:27:14;6.90;99.90
6114;DHT22;3087;48.392;10.836;2023-11-19T00:29:40;6.90;99.90
6114;DHT22;3087;48.392;10.836;2023-11-19T00:32:05;7.00;99.90
6114;DHT22;3087;48.392;10.836;2023-11-19T00:34:32;9.00;99.90
6114;DHT22;3087;48.392;10.836;2023-11-19T00:36:58;7.00;99.90
6114;DHT22;3087;48.392;10.836;2023-11-19T00:39:24;6.90;99.90
6114;DHT22;3087;48.392;10.836;2023-11-19T00:41:49;6.90;99.90
6114;DHT22;3087;48.392;10.836;2023-11-19T00:44:15;6.80;99.90
6114;DHT22;3087;48.392;10.836;2023-11-19T00:46:40;6.80;99.90
6114;DHT22;3087;48.392;10.836;2023-11-19T00:49:06;7.90;99.90
6114;DHT22;3087;48.392;10.836;2023-11-19T00:51:32;6.80;99.90
6114;DHT22;3087;48.392;10.836;2023-11-19T00:53:58;7.70;99.90
6114;DHT22;3087;48.392;10.836;2023-11-19T00:56:24;6.80;99.90
6114;DHT22;3087;48.392;10.836;2023-11-19T00:58:50;6.80;99.90
6114;DHT22;3087;48.392;10.836;2023-11-19T01:01:15;6.80;99.90
6114;DHT22;3087;48.392;10.836;2023-11-19T01:03:41;6.80;99.90
6114;DHT22;3087;48.392;10.836;2023-11-19T01:06:07;6.80;99.90
6114;DHT22;3087;48.392;10.836;2023-11-19T01:08:33;6.80;99.90
6114;DHT22;3087;48.392;10.836;2023-11-19T01:11:01;7.60;99.90
6114;DHT22;3087;48.392;10.836;2023-11-19T01:13:27;6.80;99.90
6114;DHT22;3087;48.392;10.836;2023-11-19T01:15:53;6.90;99.90
6114;DHT22;3087;48.392;10.836;2023-11-19T01:18:19;9.70;99.90
6114;DHT22;3087;48.392;10.836;2023-11-19T01:20:44;7.00;99.90
6114;DHT22;3087;48.392;10.836;2023-11-19T01:23:10;7.20;99.90
6114;DHT22;3087;48.392;10.836;2023-11-19T01:25:36;7.10;99.90
6114;DHT22;3087;48.392;10.836;2023-11-19T01:28:03;9.20;99.90
6114;DHT22;3087;48.392;10.836;2023-11-19T01:30:30;7.30;99.90
6114;DHT22;3087;48.392;10.836;2023-11-19T01:32:56;7.20;99.90
6114;DHT22;3087;48.392;10.836;2023-11-19T01:35:22;7.30;99.90
6114;DHT22;3087;48.392;10.836;2023-11-19T01:37:48;7.30;99.90
6114;DHT22;3087;48.392;10.836;2023-11-19T01:40:20;7.40;99.90
6114;DHT22;3087;48.392;10.836;2023-11-19T01:42:46;9.70;99.90
6114;DHT22;3087;48.392;10.836;2023-11-19T01:45:22;8.30;99.90
6114;DHT22;3087;48.392;10.836;2023-11-19T01:47:48;9.30;99.90
6114;DHT22;3087;48.392;10.836;2023-11-19T01:50:14;7.80;99.90
6114;DHT22;3087;48.392;10.836;2023-11-19T01:52:40;10.00;99.90
6114;DHT22;3087;48.392;10.836;2023-11-19T01:55:07;7.60;99.90
6114;DHT22;3087;48.392;10.836;2023-11-19T01:57:35;7.60;99.90
6114;DHT22;3087;48.392;10.836;2023-11-19T02:00:03;7.70;99.90
6114;DHT22;3087;48.392;10.836;2023-11-19T02:02:29;7.70;99.90
6114;DHT22;3087;48.392;10.836;2023-11-19T02:04:56;7.80;99.90
6114;DHT22;3087;48.392;10.836;2023-11-19T02:07:24;7.70;99.90
6114;DHT22;3087;48.392;10.836;2023-11-19T02:09:50;7.80;99.90
6114;DHT22;3087;48.392;10.836;2023-11-19T02:12:16;7.80;99.90
6114;DHT22;3087;48.392;10.836;2023-11-19T02:14:42;7.80;99.90
6114;DHT22;3087;48.392;10.836;2023-11-19T02:17:30;7.80;99.90
6114;DHT22;3087;48.392;10.836;2023-11-19T02:20:06;7.80;99.90
6114;DHT22;3087;48.392;10.836;2023-11-19T02:22:34;7.90;99.90
6114;DHT22;3087;48.392;10.836;2023-11-19T02:25:25;7.90;99.90
6114;DHT22;3087;48.392;10.836;2023-11-19T02:27:58;7.90;99.90
6114;DHT22;3087;48.392;10.836;2023-11-19T02:30:25;8.00;99.90
6114;DHT22;3087;48.392;10.836;2023-11-19T02:32:58;8.00;99.90
6114;DHT22;3087;48.392;10.836;2023-11-19T02:35:26;8.10;99.90
6114;DHT22;3087;48.392;10.836;2023-11-19T02:37:52;8.00;99.90
6114;DHT22;3087;48.392;10.836;2023-11-19T02:40:17;8.00;99.90
6114;DHT22;3087;48.392;10.836;2023-11-19T02:42:44;8.00;99.90
6114;DHT22;3087;48.392;10.836;2023-11-19T02:45:09;10.00;99.90
6114;DHT22;3087;48.392;10.836;2023-11-19T02:47:40;8.10;99.90
6114;DHT22;3087;48.392;10.836;2023-11-19T02:50:10;10.30;99.90
6114;DHT22;3087;48.392;10.836;2023-11-19T02:52:43;8.10;99.90
6114;DHT22;3087;48.392;10.836;2023-11-19T02:55:12;8.20;99.90
6114;DHT22;3087;48.392;10.836;2023-11-19T02:57:41;8.10;99.90
6114;DHT22;3087;48.392;10.836;2023-11-19T03:00:18;10.80;99.90
6114;DHT22;3087;48.392;10.836;2023-11-19T03:02:44;8.10;99.90
6114;DHT22;3087;48.392;10.836;2023-11-19T03:05:19;8.20;99.90
6114;DHT22;3087;48.392;10.836;2023-11-19T03:07:45;10.80;99.90
6114;DHT22;3087;48.392;10.836;2023-11-19T03:10:11;8.20;99.90
6114;DHT22;3087;48.392;10.836;2023-11-19T03:12:41;8.50;99.90
6114;DHT22;3087;48.392;10.836;2023-11-19T03:15:07;10.70;99.90
6114;DHT22;3087;48.392;10.836;2023-11-19T03:17:36;8.30;99.90
6114;DHT22;3087;48.392;10.836;2023-11-19T03:20:03;8.40;99.90
6114;DHT22;3087;48.392;10.836;2023-11-19T03:22:32;8.30;99.90
6114;DHT22;3087;48.392;10.836;2023-11-19T03:24:59;8.40;99.90
6114;DHT22;3087;48.392;10.836;2023-11-19T03:27:25;8.50;99.90
6114;DHT22;3087;48.392;10.836;2023-11-19T03:29:50;8.50;99.90
6114;DHT22;3087;48.392;10.836;2023-11-19T03:32:16;8.50;99.90
6114;DHT22;3087;48.392;10.836;2023-11-19T03:34:42;9.80;99.90
6114;DHT22;3087;48.392;10.836;2023-11-19T03:37:07;8.50;99.90
6114;DHT22;3087;48.392;10.836;2023-11-19T03:39:34;8.50;99.90
6114;DHT22;3087;48.392;10.836;2023-11-19T03:42:00;8.50;99.90
6114;DHT22;3087;48.392;10.836;2023-11-19T03:44:27;8.50;99.90
6114;DHT22;3087;48.392;10.836;2023-11-19T03:46:52;9.50;99.90
6114;DHT22;3087;48.392;10.836;2023-11-19T03:49:18;10.80;99.90
6114;DHT22;3087;48.392;10.836;2023-11-19T03:51:43;10.30;99.90
6114;DHT22;3087;48.392;10.836;2023-11-19T03:54:09;8.60;99.90
6114;DHT22;3087;48.392;10.836;2023-11-19T03:56:35;10.60;99.90
6114;DHT22;3087;48.392;10.836;2023-11-19T03:59:00;8.70;99.90
6114;DHT22;3087;48.392;10.836;2023-11-19T04:01:26;8.60;99.90
6114;DHT22;3087;48.392;10.836;2023-11-19T04:03:52;8.70;99.90
6114;DHT22;3087;48.392;10.836;2023-11-19T04:06:17;8.60;99.90
6114;DHT22;3087;48.392;10.836;2023-11-19T04:08:43;11.10;99.90
6114;DHT22;3087;48.392;10.836;2023-11-19T04:11:08;8.70;99.90
6114;DHT22;3087;48.392;10.836;2023-11-19T04:13:34;8.70;99.90
6114;DHT22;3087;48.392;10.836;2023-11-19T04:16:00;8.80;99.90
6114;DHT22;3087;48.392;10.836;2023-11-19T04:18:26;8.80;99.90
6114;DHT22;3087;48.392;10.836;2023-11-19T04:20:52;9.00;99.90
6114;DHT22;3087;48.392;10.836;2023-11-19T04:23:18;8.80;99.90
6114;DHT22;3087;48.392;10.836;2023-11-19T04:25:43;9.10;99.90
6114;DHT22;3087;48.392;10.836;2023-11-19T04:28:09;8.80;99.90
6114;DHT22;3087;48.392;10.836;2023-11-19T04:30:35;8.90;99.90
6114;DHT22;3087;48.392;10.836;2023-11-19T04:33:00;10.30;99.90
6114;DHT22;3087;48.392;10.836;2023-11-19T04:35:26;9.00;99.90
6114;DHT22;3087;48.392;10.836;2023-11-19T04:37:52;9.00;99.90
6114;DHT22;3087;48.392;10.836;2023-11-19T04:40:17;9.00;99.90
6114;DHT22;3087;48.392;10.836;2023-11-19T04:42:48;9.00;99.90
6114;DHT22;3087;48.392;10.836;2023-11-19T04:45:13;9.20;99.90
6114;DHT22;3087;48.392;10.836;2023-11-19T04:47:39;9.00;99.90
6114;DHT22;3087;48.392;10.836;2023-11-19T04:50:05;9.00;99.90
6114;DHT22;3087;48.392;10.836;2023-11-19T04:52:31;9.00;99.90
6114;DHT22;3087;48.392;10.836;2023-11-19T04:54:56;11.50;99.90
6114;DHT22;3087;48.392;10.836;2023-11-19T04:57:22;9.50;99.90
6114;DHT22;3087;48.392;10.836;2023-11-19T04:59:47;10.80;99.90
6114;DHT22;3087;48.392;10.836;2023-11-19T05:02:13;8.90;99.90
6114;DHT22;3087;48.392;10.836;2023-11-19T05:04:42;9.40;99.90
6114;DHT22;3087;48.392;10.836;2023-11-19T05:07:09;10.50;99.90
6114;DHT22;3087;48.392;10.836;2023-11-19T05:09:35;11.50;99.90
6114;DHT22;3087;48.392;10.836;2023-11-19T05:12:00;9.50;99.90
6114;DHT22;3087;48.392;10.836;2023-11-19T05:14:28;9.40;99.90
6114;DHT22;3087;48.392;10.836;2023-11-19T05:16:53;9.00;99.90
6114;DHT22;3087;48.392;10.836;2023-11-19T05:19:19;10.20;99.90
6114;DHT22;3087;48.392;10.836;2023-11-19T05:21:45;9.30;99.90
6114;DHT22;3087;48.392;10.836;2023-11-19T05:24:11;10.60;99.90
6114;DHT22;3087;48.392;10.836;2023-11-19T05:26:37;11.00;99.90
6114;DHT22;3087;48.392;10.836;2023-11-19T05:29:03;8.90;99.90
6114;DHT22;3087;48.392;10.836;2023-11-19T05:31:29;8.90;99.90
6114;DHT22;3087;48.392;10.836;2023-11-19T05:33:55;10.80;99.90
6114;DHT22;3087;48.392;10.836;2023-11-19T05:36:21;11.40;99.90
6114;DHT22;3087;48.392;10.836;2023-11-19T05:38:46;9.30;99.90
6114;DHT22;3087;48.392;10.836;2023-11-19T05:41:12;9.30;99.90
6114;DHT22;3087;48.392;10.836;2023-11-19T05:43:38;8.90;99.90
6114;DHT22;3087;48.392;10.836;2023-11-19T05:46:06;9.30;99.90
6114;DHT22;3087;48.392;10.836;2023-11-19T05:48:32;9.00;99.90
6114;DHT22;3087;48.392;10.836;2023-11-19T05:50:57;11.60;99.90
6114;DHT22;3087;48.392;10.836;2023-11-19T05:53:23;11.70;99.90
6114;DHT22;3087;48.392;10.836;2023-11-19T05:55:49;9.30;99.90
6114;DHT22;3087;48.392;10.836;2023-11-19T05:58:24;9.10;99.90
6114;DHT22;3087;48.392;10.836;2023-11-19T06:00:52;9.00;99.90
6114;DHT22;3087;48.392;10.836;2023-11-19T06:03:17;9.20;99.90
6114;DHT22;3087;48.392;10.836;2023-11-19T06:05:46;9.10;99.90
6114;DHT22;3087;48.392;10.836;2023-11-19T06:08:12;9.10;99.90
6114;DHT22;3087;48.392;10.836;2023-11-19T06:10:39;9.50;99.90
6114;DHT22;3087;48.392;10.836;2023-11-19T06:13:05;9.20;99.90
6114;DHT22;3087;48.392;10.836;2023-11-19T06:15:30;9.20;99.90
6114;DHT22;3087;48.392;10.836;2023-11-19T06:17:58;9.20;99.90
6114;DHT22;3087;48.392;10.836;2023-11-19T06:20:25;11.50;99.90
6114;DHT22;3087;48.392;10.836;2023-11-19T06:22:50;9.30;99.90
6114;DHT22;3087;48.392;10.836;2023-11-19T06:25:16;9.30;99.90
6114;DHT22;3087;48.392;10.836;2023-11-19T06:27:42;10.90;99.90
6114;DHT22;3087;48.392;10.836;2023-11-19T06:30:08;9.80;99.90
6114;DHT22;3087;48.392;10.836;2023-11-19T06:32:34;9.40;99.90
6114;DHT22;3087;48.392;10.836;2023-11-19T06:34:59;11.80;99.90
6114;DHT22;3087;48.392;10.836;2023-11-19T06:37:25;10.00;99.90
6114;DHT22;3087;48.392;10.836;2023-11-19T06:39:52;11.60;99.90
6114;DHT22;3087;48.392;10.836;2023-11-19T06:42:18;9.50;99.90
6114;DHT22;3087;48.392;10.836;2023-11-19T06:44:43;11.70;99.90
6114;DHT22;3087;48.392;10.836;2023-11-19T06:47:09;11.80;99.90
6114;DHT22;3087;48.392;10.836;2023-11-19T06:49:34;9.50;99.90
6114;DHT22;3087;48.392;10.836;2023-11-19T06:52:00;9.50;99.90
6114;DHT22;3087;48.392;10.836;2023-11-19T06:54:26;12.20;99.90
6114;DHT22;3087;48.392;10.836;2023-11-19T06:56:51;9.60;99.90
6114;DHT22;3087;48.392;10.836;2023-11-19T06:59:17;9.70;99.90
6114;DHT22;3087;48.392;10.836;2023-11-19T07:01:42;9.90;99.90
6114;DHT22;3087;48.392;10.836;2023-11-19T07:04:11;10.70;99.90
6114;DHT22;3087;48.392;10.836;2023-11-19T07:06:38;10.30;99.90
6114;DHT22;3087;48.392;10.836;2023-11-19T07:09:04;10.10;99.90
6114;DHT22;3087;48.392;10.836;2023-11-19T07:11:39;9.80;99.90
6114;DHT22;3087;48.392;10.836;2023-11-19T07:14:06;10.90;99.90
6114;DHT22;3087;48.392;10.836;2023-11-19T07:16:33;9.90;99.90
6114;DHT22;3087;48.392;10.836;2023-11-19T07:19:00;9.90;99.90
6114;DHT22;3087;48.392;10.836;2023-11-19T07:21:26;11.00;99.90
6114;DHT22;3087;48.392;10.836;2023-11-19T07:23:54;6.90;99.90
6114;DHT22;3087;48.392;10.836;2023-11-19T07:26:19;10.00;99.90
6114;DHT22;3087;48.392;10.836;2023-11-19T07:28:45;10.00;99.90
6114;DHT22;3087;48.392;10.836;2023-11-19T07:31:11;10.10;99.90
6114;DHT22;3087;48.392;10.836;2023-11-19T07:33:39;11.90;99.90
6114;DHT22;3087;48.392;10.836;2023-11-19T07:36:05;13.10;99.90
6114;DHT22;3087;48.392;10.836;2023-11-19T07:38:31;10.10;99.90
6114;DHT22;3087;48.392;10.836;2023-11-19T07:40:56;10.20;99.90
6114;DHT22;3087;48.392;10.836;2023-11-19T07:43:22;13.10;99.90
6114;DHT22;3087;48.392;10.836;2023-11-19T07:45:47;10.30;99.90
6114;DHT22;3087;48.392;10.836;2023-11-19T07:48:13;12.00;99.90
6114;DHT22;3087;48.392;10.836;2023-11-19T07:50:39;10.30;99.90
6114;DHT22;3087;48.392;10.836;2023-11-19T07:53:07;10.80;99.90
6114;DHT22;3087;48.392;10.836;2023-11-19T07:55:34;13.10;99.90
6114;DHT22;3087;48.392;10.836;2023-11-19T07:58:00;10.30;99.90
6114;DHT22;3087;48.392;10.836;2023-11-19T08:00:31;10.40;99.90
6114;DHT22;3087;48.392;10.836;2023-11-19T08:02:57;10.40;99.90
6114;DHT22;3087;48.392;10.836;2023-11-19T08:05:22;10.70;99.90
6114;DHT22;3087;48.392;10.836;2023-11-19T08:07:50;10.50;99.90
6114;DHT22;3087;48.392;10.836;2023-11-19T08:10:17;10.50;99.90
6114;DHT22;3087;48.392;10.836;2023-11-19T08:12:42;10.50;99.90
6114;DHT22;3087;48.392;10.836;2023-11-19T08:15:08;10.60;99.90
6114;DHT22;3087;48.392;10.836;2023-11-19T08:17:34;10.50;99.90
6114;DHT22;3087;48.392;10.836;2023-11-19T08:20:00;12.60;99.90
6114;DHT22;3087;48.392;10.836;2023-11-19T08:22:25;12.90;99.90
6114;DHT22;3087;48.392;10.836;2023-11-19T08:24:51;10.70;99.90
6114;DHT22;3087;48.392;10.836;2023-11-19T08:27:17;13.60;99.90
6114;DHT22;3087;48.392;10.836;2023-11-19T08:29:42;10.80;99.90
6114;DHT22;3087;48.392;10.836;2023-11-19T08:32:08;12.40;99.90
6114;DHT22;3087;48.392;10.836;2023-11-19T08:34:33;12.50;99.90
6114;DHT22;3087;48.392;10.836;2023-11-19T08:37:00;10.70;99.90
6114;DHT22;3087;48.392;10.836;2023-11-19T08:39:25;13.00;99.90
6114;DHT22;3087;48.392;10.836;2023-11-19T08:41:51;12.10;99.90
6114;DHT22;3087;48.392;10.836;2023-11-19T08:44:17;10.90;99.90
6114;DHT22;3087;48.392;10.836;2023-11-19T08:46:51;13.80;99.90
6114;DHT22;3087;48.392;10.836;2023-11-19T08:49:17;10.90;99.90
6114;DHT22;3087;48.392;10.836;2023-11-19T08:51:42;11.00;99.90
6114;DHT22;3087;48.392;10.836;2023-11-19T08:54:08;11.00;99.90
6114;DHT22;3087;48.392;10.836;2023-11-19T08:56:34;11.00;99.90
6114;DHT22;3087;48.392;10.836;2023-11-19T08:59:01;11.80;99.90
6114;DHT22;3087;48.392;10.836;2023-11-19T09:01:26;11.20;99.90
6114;DHT22;3087;48.392;10.836;2023-11-19T09:03:52;11.20;99.90
6114;DHT22;3087;48.392;10.836;2023-11-19T09:06:18;11.30;99.90
6114;DHT22;3087;48.392;10.836;2023-11-19T09:08:43;14.10;99.90
6114;DHT22;3087;48.392;10.836;2023-11-19T09:11:10;11.20;99.90
6114;DHT22;3087;48.392;10.836;2023-11-19T09:13:36;13.30;99.90
6114;DHT22;3087;48.392;10.836;2023-11-19T09:16:02;11.80;99.90
6114;DHT22;3087;48.392;10.836;2023-11-19T09:18:30;10.90;99.90
6114;DHT22;3087;48.392;10.836;2023-11-19T09:20:57;11.20;99.90
6114;DHT22;3087;48.392;10.836;2023-11-19T09:23:23;11.10;99.90
6114;DHT22;3087;48.392;10.836;2023-11-19T09:25:50;14.00;99.90
6114;DHT22;3087;48.392;10.836;2023-11-19T09:28:16;11.20;99.90
6114;DHT22;3087;48.392;10.836;2023-11-19T09:30:42;11.30;99.90
6114;DHT22;3087;48.392;10.836;2023-11-19T09:33:07;11.40;99.90
6114;DHT22;3087;48.392;10.836;2023-11-19T09:35:33;11.50;99.90
6114;DHT22;3087;48.392;10.836;2023-11-19T09:37:59;13.90;99.90
6114;DHT22;3087;48.392;10.836;2023-11-19T09:40:24;11.70;99.90
6114;DHT22;3087;48.392;10.836;2023-11-19T09:42:51;12.50;99.90
6114;DHT22;3087;48.392;10.836;2023-11-19T09:45:17;12.40;99.90
6114;DHT22;3087;48.392;10.836;2023-11-19T09:47:46;13.10;99.90
6114;DHT22;3087;48.392;10.836;2023-11-19T09:50:19;13.60;99.90
6114;DHT22;3087;48.392;10.836;2023-11-19T09:52:45;13.70;99.90
6114;DHT22;3087;48.392;10.836;2023-11-19T09:55:11;14.00;99.90
6114;DHT22;3087;48.392;10.836;2023-11-19T09:57:40;14.00;99.90
6114;DHT22;3087;48.392;10.836;2023-11-19T10:00:10;15.20;99.90
6114;DHT22;3087;48.392;10.836;2023-11-19T10:02:36;13.60;99.90
6114;DHT22;3087;48.392;10.836;2023-11-19T10:05:06;17.00;99.90
6114;DHT22;3087;48.392;10.836;2023-11-19T10:07:32;14.70;99.90
6114;DHT22;3087;48.392;10.836;2023-11-19T10:10:00;15.60;99.90
6114;DHT22;3087;48.392;10.836;2023-11-19T10:12:27;16.10;99.90
6114;DHT22;3087;48.392;10.836;2023-11-19T10:14:57;15.90;99.90
6114;DHT22;3087;48.392;10.836;2023-11-19T10:17:28;16.00;99.90
6114;DHT22;3087;48.392;10.836;2023-11-19T10:19:54;16.20;99.90
6114;DHT22;3087;48.392;10.836;2023-11-19T10:22:23;16.30;99.90
6114;DHT22;3087;48.392;10.836;2023-11-19T10:24:49;16.00;99.90
6114;DHT22;3087;48.392;10.836;2023-11-19T10:27:15;16.00;99.90
6114;DHT22;3087;48.392;10.836;2023-11-19T10:29:43;15.60;99.90
6114;DHT22;3087;48.392;10.836;2023-11-19T10:32:10;15.60;99.90
6114;DHT22;3087;48.392;10.836;2023-11-19T10:34:37;15.60;99.90
6114;DHT22;3087;48.392;10.836;2023-11-19T10:37:05;15.50;99.90
6114;DHT22;3087;48.392;10.836;2023-11-19T10:39:52;15.30;99.90
6114;DHT22;3087;48.392;10.836;2023-11-19T10:42:20;15.30;99.90
6114;DHT22;3087;48.392;10.836;2023-11-19T10:44:46;15.10;99.90
6114;DHT22;3087;48.392;10.836;2023-11-19T10:47:13;15.20;99.90
6114;DHT22;3087;48.392;10.836;2023-11-19T10:49:39;15.60;99.90
6114;DHT22;3087;48.392;10.836;2023-11-19T10:52:07;15.40;99.90
6114;DHT22;3087;48.392;10.836;2023-11-19T10:54:34;15.40;99.90
6114;DHT22;3087;48.392;10.836;2023-11-19T10:57:02;15.40;99.90
6114;DHT22;3087;48.392;10.836;2023-11-19T10:59:30;14.90;99.90
6114;DHT22;3087;48.392;10.836;2023-11-19T11:01:57;15.40;99.90
6114;DHT22;3087;48.392;10.836;2023-11-19T11:04:24;16.90;99.90
6114;DHT22;3087;48.392;10.836;2023-11-19T11:06:54;16.40;99.90
6114;DHT22;3087;48.392;10.836;2023-11-19T11:09:21;17.10;99.90
6114;DHT22;3087;48.392;10.836;2023-11-19T11:11:50;14.40;99.90
6114;DHT22;3087;48.392;10.836;2023-11-19T11:14:18;14.40;99.90
6114;DHT22;3087;48.392;10.836;2023-11-19T11:16:46;14.40;99.90
6114;DHT22;3087;48.392;10.836;2023-11-19T11:19:15;14.30;99.90
6114;DHT22;3087;48.392;10.836;2023-11-19T11:21:46;14.20;99.90
6114;DHT22;3087;48.392;10.836;2023-11-19T11:36:31;14.30;99.90
6114;DHT22;3087;48.392;10.836;2023-11-19T11:38:58;14.50;99.90
6114;DHT22;3087;48.392;10.836;2023-11-19T11:41:33;14.20;99.90
6114;DHT22;3087;48.392;10.836;2023-11-19T11:43:58;14.30;99.90
6114;DHT22;3087;48.392;10.836;2023-11-19T11:49:03;14.20;99.90
6114;DHT22;3087;48.392;10.836;2023-11-19T11:56:39;14.50;99.90
6114;DHT22;3087;48.392;10.836;2023-11-19T11:59:20;14.70;99.90
6114;DHT22;3087;48.392;10.836;2023-11-19T12:02:03;14.80;99.90
6114;DHT22;3087;48.392;10.836;2023-11-19T12:04:29;15.50;99.90
6114;DHT22;3087;48.392;10.836;2023-11-19T12:07:04;16.60;99.90
6114;DHT22;3087;48.392;10.836;2023-11-19T12:09:31;16.90;99.90
6114;DHT22;3087;48.392;10.836;2023-11-19T12:12:26;16.80;99.90
6114;DHT22;3087;48.392;10.836;2023-11-19T12:20:06;15.80;99.90
6114;DHT22;3087;48.392;10.836;2023-11-19T12:22:37;15.70;99.90
6114;DHT22;3087;48.392;10.836;2023-11-19T12:25:05;15.60;99.90
6114;DHT22;3087;48.392;10.836;2023-11-19T12:27:32;15.50;99.90
6114;DHT22;3087;48.392;10.836;2023-11-19T12:29:59;15.30;99.90
6114;DHT22;3087;48.392;10.836;2023-11-19T12:32:25;15.20;99.90
6114;DHT22;3087;48.392;10.836;2023-11-19T12:34:50;15.20;99.90
6114;DHT22;3087;48.392;10.836;2023-11-19T12:37:16;15.00;99.90
6114;DHT22;3087;48.392;10.836;2023-11-19T12:39:42;14.80;99.90
6114;DHT22;3087;48.392;10.836;2023-11-19T12:42:08;14.70;99.90
6114;DHT22;3087;48.392;10.836;2023-11-19T12:44:34;14.60;99.90
6114;DHT22;3087;48.392;10.836;2023-11-19T12:47:04;14.50;99.90
6114;DHT22;3087;48.392;10.836;2023-11-19T12:49:32;14.50;99.90
6114;DHT22;3087;48.392;10.836;2023-11-19T12:51:58;15.10;99.90
6114;DHT22;3087;48.392;10.836;2023-11-19T12:54:35;15.30;99.90
6114;DHT22;3087;48.392;10.836;2023-11-19T12:57:01;11.70;99.90
6114;DHT22;3087;48.392;10.836;2023-11-19T12:59:27;14.60;99.90
6114;DHT22;3087;48.392;10.836;2023-11-19T13:01:59;14.70;99.90
6114;DHT22;3087;48.392;10.836;2023-11-19T13:04:30;14.70;99.90
6114;DHT22;3087;48.392;10.836;2023-11-19T13:06:57;14.70;99.90
6114;DHT22;3087;48.392;10.836;2023-11-19T13:09:24;14.80;99.90
6114;DHT22;3087;48.392;10.836;2023-11-19T13:11:50;14.80;99.90
6114;DHT22;3087;48.392;10.836;2023-11-19T13:14:16;14.80;99.90
6114;DHT22;3087;48.392;10.836;2023-11-19T13:16:42;14.80;99.90
6114;DHT22;3087;48.392;10.836;2023-11-19T13:19:08;14.70;99.90
6114;DHT22;3087;48.392;10.836;2023-11-19T13:21:36;14.60;99.90
6114;DHT22;3087;48.392;10.836;2023-11-19T13:24:03;14.50;99.90
6114;DHT22;3087;48.392;10.836;2023-11-19T13:26:29;14.40;99.90
6114;DHT22;3087;48.392;10.836;2023-11-19T13:28:54;14.40;99.90
6114;DHT22;3087;48.392;10.836;2023-11-19T13:31:20;14.90;99.90
6114;DHT22;3087;48.392;10.836;2023-11-19T13:33:47;14.30;99.90
6114;DHT22;3087;48.392;10.836;2023-11-19T13:36:12;14.20;99.90
6114;DHT22;3087;48.392;10.836;2023-11-19T13:38:38;14.20;99.90
6114;DHT22;3087;48.392;10.836;2023-11-19T13:41:06;14.20;99.90
6114;DHT22;3087;48.392;10.836;2023-11-19T13:43:32;14.10;99.90
6114;DHT22;3087;48.392;10.836;2023-11-19T13:45:57;14.10;99.90
6114;DHT22;3087;48.392;10.836;2023-11-19T13:48:24;15.50;99.90
6114;DHT22;3087;48.392;10.836;2023-11-19T13:50:50;14.10;99.90
6114;DHT22;3087;48.392;10.836;2023-11-19T13:53:16;14.20;99.90
6114;DHT22;3087;48.392;10.836;2023-11-19T13:55:42;14.20;99.90
6114;DHT22;3087;48.392;10.836;2023-11-19T13:58:09;15.60;99.90
6114;DHT22;3087;48.392;10.836;2023-11-19T14:00:34;14.40;99.90
6114;DHT22;3087;48.392;10.836;2023-11-19T14:03:00;15.30;99.90
6114;DHT22;3087;48.392;10.836;2023-11-19T14:05:25;15.10;99.90
6114;DHT22;3087;48.392;10.836;2023-11-19T14:07:52;14.40;99.90
6114;DHT22;3087;48.392;10.836;2023-11-19T14:10:19;14.60;99.90
6114;DHT22;3087;48.392;10.836;2023-11-19T14:12:45;14.40;99.90
6114;DHT22;3087;48.392;10.836;2023-11-19T14:15:10;15.50;99.90
6114;DHT22;3087;48.392;10.836;2023-11-19T14:17:38;14.40;99.90
6114;DHT22;3087;48.392;10.836;2023-11-19T14:20:05;14.40;99.90
6114;DHT22;3087;48.392;10.836;2023-11-19T14:22:44;14.30;99.90
6114;DHT22;3087;48.392;10.836;2023-11-19T14:25:12;15.10;99.90
6114;DHT22;3087;48.392;10.836;2023-11-19T14:27:38;14.20;99.90
6114;DHT22;3087;48.392;10.836;2023-11-19T14:30:09;14.80;99.90
6114;DHT22;3087;48.392;10.836;2023-11-19T14:32:36;14.10;99.90
6114;DHT22;3087;48.392;10.836;2023-11-19T14:35:02;14.10;99.90
6114;DHT22;3087;48.392;10.836;2023-11-19T14:37:29;14.10;99.90
6114;DHT22;3087;48.392;10.836;2023-11-19T14:39:56;14.10;99.90
6114;DHT22;3087;48.392;10.836;2023-11-19T14:42:23;14.10;99.90
6114;DHT22;3087;48.392;10.836;2023-11-19T14:44:50;14.00;99.90
6114;DHT22;3087;48.392;10.836;2023-11-19T14:47:18;16.50;99.90
6114;DHT22;3087;48.392;10.836;2023-11-19T14:49:44;14.00;99.90
6114;DHT22;3087;48.392;10.836;2023-11-19T14:52:09;14.00;99.90
6114;DHT22;3087;48.392;10.836;2023-11-19T14:54:35;14.00;99.90
6114;DHT22;3087;48.392;10.836;2023-11-19T14:57:01;15.90;99.90
6114;DHT22;3087;48.392;10.836;2023-11-19T14:59:27;16.30;99.90
6114;DHT22;3087;48.392;10.836;2023-11-19T15:01:53;15.70;99.90
6114;DHT22;3087;48.392;10.836;2023-11-19T15:04:19;14.20;99.90
6114;DHT22;3087;48.392;10.836;2023-11-19T15:06:44;16.10;99.90
6114;DHT22;3087;48.392;10.836;2023-11-19T15:09:10;16.50;99.90
6114;DHT22;3087;48.392;10.836;2023-11-19T15:11:41;16.60;99.90
6114;DHT22;3087;48.392;10.836;2023-11-19T15:14:07;16.70;99.90
6114;DHT22;3087;48.392;10.836;2023-11-19T15:16:33;13.80;99.90
6114;DHT22;3087;48.392;10.836;2023-11-19T15:19:00;13.50;99.90
6114;DHT22;3087;48.392;10.836;2023-11-19T15:21:28;13.50;99.90
6114;DHT22;3087;48.392;10.836;2023-11-19T15:23:55;13.40;99.90
6114;DHT22;3087;48.392;10.836;2023-11-19T15:26:21;15.80;99.90
6114;DHT22;3087;48.392;10.836;2023-11-19T15:28:47;14.80;99.90
6114;DHT22;3087;48.392;10.836;2023-11-19T15:31:12;13.30;99.90
6114;DHT22;3087;48.392;10.836;2023-11-19T15:33:40;13.20;99.90
6114;DHT22;3087;48.392;10.836;2023-11-19T15:36:06;14.40;99.90
6114;DHT22;3087;48.392;10.836;2023-11-19T15:38:36;13.10;99.90
6114;DHT22;3087;48.392;10.836;2023-11-19T15:41:01;13.10;99.90
6114;DHT22;3087;48.392;10.836;2023-11-19T15:43:30;14.80;99.90
6114;DHT22;3087;48.392;10.836;2023-11-19T15:45:56;13.00;99.90
6114;DHT22;3087;48.392;10.836;2023-11-19T15:48:22;14.60;99.90
6114;DHT22;3087;48.392;10.836;2023-11-19T15:50:47;15.30;99.90
6114;DHT22;3087;48.392;10.836;2023-11-19T15:53:13;12.80;99.90
6114;DHT22;3087;48.392;10.836;2023-11-19T15:55:39;12.80;99.90
6114;DHT22;3087;48.392;10.836;2023-11-19T15:58:04;13.20;99.90
6114;DHT22;3087;48.392;10.836;2023-11-19T16:00:30;14.10;99.90
6114;DHT22;3087;48.392;10.836;2023-11-19T16:02:57;14.10;99.90
6114;DHT22;3087;48.392;10.836;2023-11-19T16:05:23;14.60;99.90
6114;DHT22;3087;48.392;10.836;2023-11-19T16:07:51;14.60;99.90
6114;DHT22;3087;48.392;10.836;2023-11-19T16:10:16;14.30;99.90
6114;DHT22;3087;48.392;10.836;2023-11-19T16:12:45;12.60;99.90
6114;DHT22;3087;48.392;10.836;2023-11-19T16:15:11;12.60;99.90